Time;durP1;ratioP1;P1;durP2;ratioP2;P2;SDS_P1;SDS_P2;PMS_P1;PMS_P2;Temp;Humidity;BMP_temperature;BMP_pressure;BME280_temperature;BME280_humidity;BME280_pressure;Samples;Min_cycle;Max_cycle;Signal;HPM_P1;HPM_P2
2021/08/20 00:13:39;;;;;;;;;;;;;;;18.55;100.00;98792.41;4666583;30;20008;-80
2021/08/20 00:16:10;;;;;;;;;;;;;;;18.35;100.00;98784.50;4670052;30;19943;-79
2021/08/20 00:18:40;;;;;;;;;;;;;;;18.68;100.00;98793.69;4683080;30;19932;-80
2021/08/20 00:42:23;;;;;;;;;;;;;;;18.48;100.00;98799.22;1198048;27;20022;-81
2021/08/20 00:45:59;;;;;;;;;;;;;;;18.68;100.00;98796.53;4847656;29;19932;-81
2021/08/20 01:16:46;;;;;;;;;;;;;;;18.47;100.00;98803.31;5145868;27;19938;-81
2021/08/20 01:19:47;;;;;;;;;;;;;;;18.28;100.00;98801.06;5097739;28;20363;-84
2021/08/20 01:25:32;;;;;;;;;;;;;;;18.14;100.00;98808.22;5097738;28;19924;-84
2021/08/20 01:28:07;;;;;;;;;;;;;;;18.31;100.00;98805.75;5094094;28;19931;-86
2021/08/20 01:30:36;;;;;;;;;;;;;;;18.39;100.00;98807.75;5101593;28;19946;-86
2021/08/20 01:33:04;;;;;;;;;;;;;;;18.02;100.00;98806.41;5109583;28;19924;-87
2021/08/20 01:35:33;;;;;;;;;;;;;;;18.24;100.00;98812.53;5090013;28;20003;-87
2021/08/20 01:38:00;;;;;;;;;;;;;;;18.44;100.00;98812.75;5104531;28;19924;-88
2021/08/20 01:40:28;;;;;;;;;;;;;;;18.35;100.00;98798.66;5102230;28;19924;-87
2021/08/20 01:42:56;;;;;;;;;;;;;;;18.41;100.00;98810.91;5121549;28;19924;-87
2021/08/20 01:45:23;;;;;;;;;;;;;;;18.43;100.00;98804.75;5076434;28;19924;-87
2021/08/20 01:47:53;;;;;;;;;;;;;;;18.65;100.00;98803.16;5109889;28;19924;-87
2021/08/20 01:50:20;;;;;;;;;;;;;;;18.75;100.00;98798.97;5093146;28;19970;-87
2021/08/20 01:52:47;;;;;;;;;;;;;;;18.82;100.00;98800.66;5105876;28;19955;-87
2021/08/20 01:55:15;;;;;;;;;;;;;;;18.94;100.00;98808.88;5075936;28;19924;-87
2021/08/20 01:57:45;;;;;;;;;;;;;;;19.03;100.00;98805.97;5109725;28;20014;-87
2021/08/20 02:00:12;;;;;;;;;;;;;;;19.06;100.00;98799.34;5144032;27;20295;-87
2021/08/20 02:02:40;;;;;;;;;;;;;;;19.07;100.00;98795.22;5079594;28;19928;-87
2021/08/20 02:05:12;;;;;;;;;;;;;;;19.13;100.00;98798.94;5093044;28;19930;-87
2021/08/20 02:07:40;;;;;;;;;;;;;;;18.97;100.00;98801.47;5092302;28;19943;-88
2021/08/20 02:10:09;;;;;;;;;;;;;;;18.80;100.00;98806.81;5085164;28;19927;-87
2021/08/20 02:12:37;;;;;;;;;;;;;;;18.88;100.00;98812.88;5092587;28;19969;-86
2021/08/20 02:15:07;;;;;;;;;;;;;;;18.87;100.00;98811.31;5092551;28;19927;-87
2021/08/20 02:17:34;;;;;;;;;;;;;;;18.84;100.00;98804.56;5075333;28;19973;-87
2021/08/20 02:20:01;;;;;;;;;;;;;;;18.90;100.00;98810.34;5109459;28;19924;-86
2021/08/20 02:22:30;;;;;;;;;;;;;;;19.07;100.00;98809.38;5109422;28;19928;-85
2021/08/20 02:24:57;;;;;;;;;;;;;;;19.09;100.00;98811.72;5092886;28;19947;-85
2021/08/20 02:27:24;;;;;;;;;;;;;;;19.08;100.00;98813.78;5077861;28;19924;-85
2021/08/20 02:29:58;;;;;;;;;;;;;;;19.01;100.00;98808.50;5095750;28;19950;-86
2021/08/20 02:32:25;;;;;;;;;;;;;;;18.85;100.00;98808.97;5062160;28;19998;-87
2021/08/20 02:34:52;;;;;;;;;;;;;;;18.57;100.00;98807.63;5095408;28;19963;-86
2021/08/20 02:37:19;;;;;;;;;;;;;;;18.78;100.00;98809.31;5095371;28;19928;-86
2021/08/20 02:39:47;;;;;;;;;;;;;;;18.90;100.00;98813.94;5090556;28;20011;-86
2021/08/20 02:42:14;;;;;;;;;;;;;;;18.81;100.00;98816.09;5095540;28;19963;-86
2021/08/20 02:44:41;;;;;;;;;;;;;;;18.69;100.00;98809.41;5075500;28;20272;-86
2021/08/20 02:47:09;;;;;;;;;;;;;;;18.33;100.00;98808.88;5078255;28;19935;-86
2021/08/20 02:49:36;;;;;;;;;;;;;;;18.60;100.00;98811.56;5095264;28;19925;-86
2021/08/20 02:52:03;;;;;;;;;;;;;;;18.73;100.00;98814.88;5078251;28;19924;-86
2021/08/20 02:54:35;;;;;;;;;;;;;;;18.82;100.00;98812.78;5079195;28;19932;-86
2021/08/20 02:57:02;;;;;;;;;;;;;;;18.87;100.00;98809.25;5078348;28;19931;-87
2021/08/20 02:59:31;;;;;;;;;;;;;;;18.98;100.00;98814.34;5078347;28;20061;-86
2021/08/20 03:02:01;;;;;;;;;;;;;;;18.93;100.00;98812.97;5061816;28;19924;-86
2021/08/20 03:04:29;;;;;;;;;;;;;;;18.95;100.00;98804.78;5094831;28;19924;-86
2021/08/20 03:06:56;;;;;;;;;;;;;;;18.96;100.00;98808.41;5095167;28;19931;-87
2021/08/20 03:09:31;;;;;;;;;;;;;;;18.62;100.00;98804.13;5095086;28;19924;-86
2021/08/20 03:11:58;;;;;;;;;;;;;;;18.68;100.00;98805.03;5077974;28;19928;-86
2021/08/20 03:14:25;;;;;;;;;;;;;;;18.76;100.00;98802.59;5060331;28;19924;-86
2021/08/20 03:16:54;;;;;;;;;;;;;;;18.85;100.00;98805.34;5094897;28;19930;-87
2021/08/20 03:19:22;;;;;;;;;;;;;;;18.85;100.00;98803.31;5094641;28;19930;-86
2021/08/20 03:21:49;;;;;;;;;;;;;;;18.88;100.00;98799.50;5094699;28;20283;-86
2021/08/20 03:24:29;;;;;;;;;;;;;;;18.92;100.00;98799.31;5091506;28;19926;-86
2021/08/20 03:27:09;;;;;;;;;;;;;;;19.02;100.00;98792.31;5153063;27;19961;-87
2021/08/20 03:29:49;;;;;;;;;;;;;;;19.03;100.00;98788.97;5111346;27;19965;-87
2021/08/20 03:32:31;;;;;;;;;;;;;;;19.02;100.00;98786.63;5111806;27;19912;-87
2021/08/20 03:35:13;;;;;;;;;;;;;;;18.80;100.00;98794.69;5112334;27;19912;-87
2021/08/20 03:37:54;;;;;;;;;;;;;;;18.98;100.00;98788.84;5091647;28;19912;-87
2021/08/20 03:40:34;;;;;;;;;;;;;;;18.89;100.00;98786.91;5044062;28;20045;-87
2021/08/20 03:43:16;;;;;;;;;;;;;;;18.98;100.00;98788.84;5091040;28;19965;-87
2021/08/20 03:46:03;;;;;;;;;;;;;;;18.78;100.00;98792.34;5110552;27;19916;-87
2021/08/20 03:48:45;;;;;;;;;;;;;;;18.65;100.00;98786.19;5091486;28;19916;-86
2021/08/20 03:51:26;;;;;;;;;;;;;;;18.78;100.00;98795.19;5091465;28;20363;-87
2021/08/20 03:54:04;;;;;;;;;;;;;;;18.88;100.00;98790.22;5111470;27;19938;-87
2021/08/20 03:56:44;;;;;;;;;;;;;;;18.71;100.00;98794.78;5091371;28;20376;-87
2021/08/20 03:59:30;;;;;;;;;;;;;;;18.64;100.00;98793.13;5111876;27;19912;-86
2021/08/20 04:02:15;;;;;;;;;;;;;;;18.83;100.00;98783.19;5048125;27;2021088;-86
2021/08/20 04:04:55;;;;;;;;;;;;;;;18.88;100.00;98787.41;5091494;28;19912;-87
2021/08/20 04:07:52;;;;;;;;;;;;;;;18.72;100.00;98790.69;5106722;27;19948;-87
2021/08/20 04:11:03;;;;;;;;;;;;;;;18.62;100.00;98792.03;5111545;27;19912;-87
2021/08/20 04:14:13;;;;;;;;;;;;;;;18.44;100.00;98792.97;5111606;27;19912;-87
2021/08/20 04:16:53;;;;;;;;;;;;;;;18.53;100.00;98801.38;5132479;27;19912;-87
2021/08/20 04:19:35;;;;;;;;;;;;;;;18.43;100.00;98797.06;5091187;28;19916;-86
2021/08/20 04:22:14;;;;;;;;;;;;;;;18.51;100.00;98798.25;5091599;28;19916;-86
2021/08/20 04:24:52;;;;;;;;;;;;;;;18.40;100.00;98803.69;5111815;27;19912;-87
2021/08/20 04:28:03;;;;;;;;;;;;;;;17.98;100.00;98811.44;5111005;28;19964;-87
2021/08/20 04:31:03;;;;;;;;;;;;;;;18.18;100.00;98813.69;5111760;27;19916;-87
2021/08/20 04:34:24;;;;;;;;;;;;;;;18.45;100.00;98819.22;5098763;27;19962;-87
2021/08/20 04:37:29;;;;;;;;;;;;;;;18.47;100.00;98808.97;5112547;27;19916;-86
2021/08/20 04:40:25;;;;;;;;;;;;;;;18.68;100.00;98805.03;5091649;28;20034;-87
2021/08/20 04:43:14;;;;;;;;;;;;;;;18.77;100.00;98810.59;5112002;27;19961;-87
2021/08/20 04:46:04;;;;;;;;;;;;;;;18.50;100.00;98812.88;5080627;28;20303;-87
2021/08/20 04:48:52;;;;;;;;;;;;;;;18.40;100.00;98825.53;5126638;27;19920;-87
2021/08/20 04:51:44;;;;;;;;;;;;;;;18.36;100.00;98825.66;5111983;27;20260;-87
2021/08/20 04:54:35;;;;;;;;;;;;;;;18.55;100.00;98821.50;5111857;27;19912;-87
2021/08/20 04:57:21;;;;;;;;;;;;;;;17.73;100.00;98828.84;5111741;27;19916;-87
2021/08/20 05:00:15;;;;;;;;;;;;;;;18.26;100.00;98838.31;5072408;27;20295;-85
2021/08/20 05:03:14;;;;;;;;;;;;;;;18.54;100.00;98836.13;5072921;27;20380;-85
2021/08/20 05:06:14;;;;;;;;;;;;;;;18.26;100.00;98838.31;5173793;27;19918;-86
2021/08/20 05:09:09;;;;;;;;;;;;;;;18.20;100.00;98837.41;5072695;27;19913;-85
2021/08/20 05:12:02;;;;;;;;;;;;;;;18.20;100.00;98843.06;5097894;27;20288;-86
2021/08/20 05:15:02;;;;;;;;;;;;;;;17.90;100.00;98847.75;5107103;27;20383;-86
2021/08/20 05:18:13;;;;;;;;;;;;;;;18.24;100.00;98849.31;5071143;27;19963;-86
2021/08/20 05:21:07;;;;;;;;;;;;;;;17.94;100.00;98848.38;5067779;27;20372;-86
2021/08/20 05:23:55;;;;;;;;;;;;;;;17.85;100.00;98858.94;5091177;28;19916;-85
2021/08/20 05:26:51;;;;;;;;;;;;;;;18.30;100.00;98855.88;5142165;27;19916;-86
2021/08/20 05:29:45;;;;;;;;;;;;;;;18.57;100.00;98852.13;5066386;27;19921;-86
2021/08/20 05:32:24;;;;;;;;;;;;;;;18.45;100.00;98839.78;5051221;28;19952;-86
2021/08/20 05:35:04;;;;;;;;;;;;;;;18.74;100.00;98839.09;5091866;28;19912;-86
2021/08/20 05:37:43;;;;;;;;;;;;;;;18.80;100.00;98854.91;5091103;28;19912;-86
2021/08/20 05:40:23;;;;;;;;;;;;;;;18.89;100.00;98854.84;5091478;28;19913;-86
2021/08/20 05:43:03;;;;;;;;;;;;;;;18.96;100.00;98862.19;5111680;27;20367;-86
2021/08/20 05:45:40;;;;;;;;;;;;;;;18.93;100.00;98863.16;5041457;27;2027654;-86
2021/08/20 05:48:46;;;;;;;;;;;;;;;18.77;100.00;98857.94;5111887;27;19965;-86
2021/08/20 05:51:26;;;;;;;;;;;;;;;18.99;100.00;98858.38;5091409;28;20004;-86
2021/08/20 05:54:05;;;;;;;;;;;;;;;18.69;100.00;98851.09;5085132;28;20380;-86
2021/08/20 05:56:44;;;;;;;;;;;;;;;17.81;100.00;98858.34;5112053;27;19912;-86
2021/08/20 05:59:23;;;;;;;;;;;;;;;18.20;100.00;98857.19;5091825;28;19916;-86
2021/08/20 06:02:02;;;;;;;;;;;;;;;18.14;100.00;98864.78;5091257;28;19942;-86
2021/08/20 06:04:41;;;;;;;;;;;;;;;18.62;100.00;98865.59;5153001;27;19916;-86
2021/08/20 06:07:20;;;;;;;;;;;;;;;18.81;100.00;98855.72;5111492;27;19912;-86
2021/08/20 06:10:14;;;;;;;;;;;;;;;18.98;100.00;98848.31;5111667;27;20375;-81
2021/08/20 06:12:53;;;;;;;;;;;;;;;19.04;100.00;98850.00;5112629;27;19912;-84
2021/08/20 15:03:32;;;;;;;;;;;;;;;23.74;100.00;98955.47;5071014;28;19913;-79
2021/08/20 15:05:59;;;;;;;;;;;;;;;23.76;100.00;98944.34;5070556;28;19936;-79
2021/08/20 15:08:26;;;;;;;;;;;;;;;24.06;100.00;98945.44;5070022;28;19932;-79
2021/08/20 15:10:53;;;;;;;;;;;;;;;24.07;100.00;98941.28;5069301;28;19929;-79
2021/08/20 15:13:21;;;;;;;;;;;;;;;24.37;100.00;98945.94;5070481;28;20019;-79
2021/08/20 15:15:48;;;;;;;;;;;;;;;24.16;100.00;98938.16;5069182;28;19925;-79
2021/08/20 15:18:16;;;;;;;;;;;;;;;24.40;100.00;98938.44;5069088;28;19925;-79
2021/08/20 15:20:43;;;;;;;;;;;;;;;24.54;100.00;98940.22;5070458;28;20363;-79
2021/08/20 15:23:11;;;;;;;;;;;;;;;24.52;100.00;98942.84;5075442;28;19978;-79
2021/08/20 15:25:39;;;;;;;;;;;;;;;23.95;100.00;98939.69;5085783;28;19925;-78
2021/08/20 15:28:06;;;;;;;;;;;;;;;23.07;100.00;98943.81;5069739;28;19924;-79
2021/08/20 15:30:34;;;;;;;;;;;;;;;23.55;100.00;98951.56;5069289;28;20013;-79
2021/08/20 15:33:01;;;;;;;;;;;;;;;23.69;100.00;98951.31;5069885;28;20513;-79
2021/08/20 15:35:28;;;;;;;;;;;;;;;23.49;100.00;98947.91;5069990;28;20417;-79
2021/08/20 15:37:55;;;;;;;;;;;;;;;23.61;100.00;98949.50;5072557;28;19924;-79
2021/08/20 15:40:26;;;;;;;;;;;;;;;23.66;100.00;98951.59;5069221;28;19988;-79
2021/08/20 15:42:53;;;;;;;;;;;;;;;23.84;100.00;98951.88;5061992;28;19925;-79
2021/08/20 15:45:20;;;;;;;;;;;;;;;23.50;100.00;98949.44;5084440;28;19928;-79
2021/08/20 15:47:47;;;;;;;;;;;;;;;23.53;100.00;98959.81;5069861;28;19924;-79
2021/08/20 15:50:16;;;;;;;;;;;;;;;23.19;100.00;98958.13;5068518;28;19925;-79
2021/08/20 15:52:47;;;;;;;;;;;;;;;23.13;100.00;98960.94;5068629;28;20015;-79
2021/08/20 15:55:15;;;;;;;;;;;;;;;23.17;100.00;98965.09;5069823;28;19939;-79
2021/08/20 15:57:43;;;;;;;;;;;;;;;23.55;100.00;98951.56;5069757;28;19982;-78
2021/08/20 16:00:10;;;;;;;;;;;;;;;23.34;100.00;98953.03;5069497;28;19925;-79
2021/08/20 16:02:37;;;;;;;;;;;;;;;23.22;100.00;98951.41;5067632;28;19947;-79
2021/08/20 16:05:04;;;;;;;;;;;;;;;23.54;100.00;98941.44;5084852;28;19928;-79
2021/08/20 16:07:32;;;;;;;;;;;;;;;23.27;100.00;98948.59;5101756;28;19929;-78
2021/08/20 16:09:59;;;;;;;;;;;;;;;23.05;100.00;98952.09;5085529;28;20257;-79
2021/08/20 16:14:09;;;;;;;;;;;;;;;23.13;100.00;98943.84;5083459;28;19986;-82
2021/08/20 16:16:37;;;;;;;;;;;;;;;23.48;100.00;98949.97;5033554;28;19972;-84
2021/08/20 16:19:10;;;;;;;;;;;;;;;23.60;100.00;98942.25;5069015;28;19924;-81
2021/08/20 16:21:38;;;;;;;;;;;;;;;23.18;100.00;98951.66;5046483;28;19972;-81
2021/08/20 16:24:05;;;;;;;;;;;;;;;23.65;100.00;98950.00;5059377;28;19931;-81
2021/08/20 16:26:35;;;;;;;;;;;;;;;23.69;100.00;98950.56;5070024;28;19925;-79
2021/08/20 16:29:02;;;;;;;;;;;;;;;23.36;100.00;98936.19;5032685;28;20015;-80
2021/08/20 16:31:29;;;;;;;;;;;;;;;23.67;100.00;98950.28;5067375;28;19928;-84
2021/08/20 16:33:58;;;;;;;;;;;;;;;23.71;100.00;98948.75;5067542;28;19924;-84
2021/08/20 16:36:27;;;;;;;;;;;;;;;23.50;100.00;98949.44;5050784;28;20292;-86
2021/08/20 16:38:55;;;;;;;;;;;;;;;23.77;100.00;98952.38;5071606;28;19924;-85
2021/08/20 16:41:22;;;;;;;;;;;;;;;23.67;100.00;98947.44;5052061;28;19975;-85
2021/08/20 16:43:50;;;;;;;;;;;;;;;23.37;100.00;98946.31;5069570;28;19932;-84
2021/08/20 16:46:17;;;;;;;;;;;;;;;23.29;100.00;98950.94;5066671;28;19925;-84
2021/08/20 16:48:44;;;;;;;;;;;;;;;23.04;100.00;98952.59;5049349;28;19928;-84
2021/08/20 16:51:11;;;;;;;;;;;;;;;22.87;100.00;98955.38;5066979;28;19935;-84
2021/08/20 16:53:38;;;;;;;;;;;;;;;23.04;100.00;98953.41;5065715;28;20284;-84
2021/08/20 16:56:05;;;;;;;;;;;;;;;23.02;100.00;98955.97;5066773;28;19925;-84
2021/08/20 16:58:32;;;;;;;;;;;;;;;22.74;100.00;98963.59;5068966;28;19925;-84
2021/08/20 17:00:59;;;;;;;;;;;;;;;22.54;100.00;98974.31;5066803;28;19924;-84
2021/08/20 17:03:26;;;;;;;;;;;;;;;22.29;100.00;98973.06;5048911;28;20273;-84
2021/08/20 17:05:53;;;;;;;;;;;;;;;22.32;100.00;98971.28;5049041;28;20288;-84
2021/08/20 17:08:20;;;;;;;;;;;;;;;22.63;100.00;98963.50;5049098;28;19971;-84
2021/08/20 17:10:47;;;;;;;;;;;;;;;22.38;100.00;98964.34;5058233;28;20299;-84
2021/08/20 17:14:55;;;;;;;;;;;;;;;22.36;100.00;98966.91;5091650;28;19926;-84
2021/08/20 17:17:22;;;;;;;;;;;;;;;22.36;100.00;98966.91;5107266;28;19925;-84
2021/08/20 17:19:49;;;;;;;;;;;;;;;22.30;100.00;98971.78;5073407;28;19924;-84
2021/08/20 17:22:17;;;;;;;;;;;;;;;22.22;100.00;98973.50;5107021;28;19935;-84
2021/08/20 17:24:46;;;;;;;;;;;;;;;22.22;100.00;98981.28;5056457;28;19936;-84
2021/08/20 17:27:13;;;;;;;;;;;;;;;22.16;100.00;98986.91;5073590;28;19931;-84
2021/08/20 17:29:42;;;;;;;;;;;;;;;22.21;100.00;98983.34;5071923;28;19925;-84
2021/08/20 17:32:09;;;;;;;;;;;;;;;22.24;100.00;98982.34;5069640;28;19925;-84
2021/08/20 17:34:37;;;;;;;;;;;;;;;22.44;100.00;98987.16;5052968;28;19947;-84
2021/08/20 17:37:06;;;;;;;;;;;;;;;22.21;100.00;98986.19;5106987;28;19929;-84
2021/08/20 17:39:36;;;;;;;;;;;;;;;22.09;100.00;98978.84;5089665;28;19925;-83
2021/08/20 17:42:07;;;;;;;;;;;;;;;22.31;100.00;98981.88;5058260;28;19933;-89
2021/08/20 17:44:36;;;;;;;;;;;;;;;22.33;100.00;98985.00;5074647;28;20437;-90
2021/08/20 17:47:03;;;;;;;;;;;;;;;22.29;100.00;98977.97;5091502;28;20018;-88
2021/08/20 17:49:31;;;;;;;;;;;;;;;22.58;100.00;98984.19;5091332;28;19928;-92
2021/08/20 17:52:01;;;;;;;;;;;;;;;22.64;100.00;98987.84;5071739;28;19925;-89
2021/08/20 17:54:29;;;;;;;;;;;;;;;22.65;100.00;98983.72;5071822;28;19978;-89
2021/08/20 17:56:56;;;;;;;;;;;;;;;22.32;100.00;98985.50;5118994;27;19924;-89
2021/08/20 17:59:27;;;;;;;;;;;;;;;21.99;100.00;98994.50;5101072;28;20035;-88
2021/08/20 18:01:56;;;;;;;;;;;;;;;22.18;100.00;98989.25;5090002;28;19978;-89
2021/08/20 18:04:23;;;;;;;;;;;;;;;21.97;100.00;98996.31;5089526;28;19924;-88
2021/08/20 18:06:52;;;;;;;;;;;;;;;21.91;100.00;98993.41;5087882;28;20002;-92
2021/08/20 18:09:20;;;;;;;;;;;;;;;22.17;100.00;98988.50;5094379;28;19929;-91
2021/08/20 18:11:53;;;;;;;;;;;;;;;22.31;100.00;98993.25;5072459;28;20129;-90
2021/08/20 18:14:24;;;;;;;;;;;;;;;21.88;100.00;98993.63;5068300;28;19972;-80
2021/08/20 18:16:50;;;;;;;;;;;;;;;21.66;100.00;98994.13;5087534;28;19931;-79
2021/08/20 18:19:18;;;;;;;;;;;;;;;21.81;100.00;99000.53;5084293;28;19982;-80
2021/08/20 18:21:48;;;;;;;;;;;;;;;21.33;100.00;98997.38;5083639;28;19935;-80
2021/08/20 18:24:15;;;;;;;;;;;;;;;21.42;100.00;98995.69;5072009;27;19932;-81
2021/08/20 18:26:50;;;;;;;;;;;;;;;21.32;100.00;98995.03;5074471;28;19931;-81
2021/08/20 18:29:21;;;;;;;;;;;;;;;21.20;100.00;99004.69;5074879;28;20451;-80
2021/08/20 18:31:48;;;;;;;;;;;;;;;21.23;100.00;99001.63;5068000;28;19928;-80
2021/08/20 18:34:15;;;;;;;;;;;;;;;21.40;100.00;99001.88;5055362;28;19932;-82
2021/08/20 18:36:43;;;;;;;;;;;;;;;21.27;100.00;99001.44;5074592;28;20360;-81
2021/08/20 18:39:11;;;;;;;;;;;;;;;21.30;100.00;99000.44;5081933;28;19966;-80
2021/08/20 18:41:38;;;;;;;;;;;;;;;21.63;100.00;99006.50;5076500;28;20279;-82
2021/08/20 18:44:06;;;;;;;;;;;;;;;21.32;100.00;99003.56;5091825;28;20280;-81
2021/08/20 18:46:33;;;;;;;;;;;;;;;21.48;100.00;98999.38;5074605;28;19924;-80
2021/08/20 18:49:01;;;;;;;;;;;;;;;21.62;100.00;98999.28;5069807;28;19924;-81
2021/08/20 18:51:28;;;;;;;;;;;;;;;21.56;100.00;99001.28;5076759;28;19928;-81
2021/08/20 18:53:55;;;;;;;;;;;;;;;21.47;100.00;98992.91;5074867;28;19932;-81
2021/08/20 18:56:24;;;;;;;;;;;;;;;21.40;100.00;98999.78;5074728;28;19924;-81
2021/08/20 18:58:51;;;;;;;;;;;;;;;21.14;100.00;99001.00;5074964;28;19930;-81
2021/08/20 19:01:18;;;;;;;;;;;;;;;21.49;100.00;99004.56;5067809;28;20380;-80
2021/08/20 19:03:45;;;;;;;;;;;;;;;21.28;100.00;99003.00;5072706;28;19924;-81
2021/08/20 19:06:12;;;;;;;;;;;;;;;21.12;100.00;99015.72;5074323;28;19931;-79
2021/08/20 19:08:40;;;;;;;;;;;;;;;21.08;100.00;99008.69;5095287;28;19931;-81
2021/08/20 19:11:07;;;;;;;;;;;;;;;20.86;100.00;99011.16;5075683;28;19928;-82
2021/08/20 19:13:38;;;;;;;;;;;;;;;20.69;100.00;99013.00;5073592;28;19928;-90
2021/08/20 19:16:05;;;;;;;;;;;;;;;20.86;100.00;99022.50;5068597;28;19924;-87
2021/08/20 19:18:40;;;;;;;;;;;;;;;20.96;100.00;99010.56;5065424;28;19947;-90
2021/08/20 19:21:09;;;;;;;;;;;;;;;20.90;100.00;99017.44;5044520;28;20290;-90
2021/08/20 19:23:40;;;;;;;;;;;;;;;20.89;100.00;99018.69;5073653;28;19935;-91
2021/08/20 19:26:08;;;;;;;;;;;;;;;20.98;100.00;99018.59;5056137;28;19952;-90
2021/08/20 19:28:36;;;;;;;;;;;;;;;21.42;100.00;99013.50;5072415;28;20007;-84
2021/08/20 19:31:03;;;;;;;;;;;;;;;21.49;100.00;99020.81;5103912;28;19924;-85
2021/08/20 19:33:30;;;;;;;;;;;;;;;21.76;100.00;99026.06;5072675;28;19990;-85
2021/08/20 19:36:14;;;;;;;;;;;;;;;21.93;100.00;99019.28;5058899;28;19933;-83
2021/08/20 19:50:40;;;;;;;;;;;;;;;21.72;100.00;99028.34;5091008;28;20380;-83
2021/08/20 19:53:07;;;;;;;;;;;;;;;21.77;100.00;99031.25;5073217;28;19959;-83
2021/08/20 19:55:34;;;;;;;;;;;;;;;21.70;100.00;99033.72;5072963;28;19939;-83
2021/08/20 19:58:02;;;;;;;;;;;;;;;21.82;100.00;99024.88;5076486;28;19931;-83
2021/08/20 20:00:31;;;;;;;;;;;;;;;21.83;100.00;99023.56;5072579;28;19924;-84
2021/08/20 20:02:58;;;;;;;;;;;;;;;21.83;100.00;99029.25;5056264;28;19931;-83
2021/08/20 20:05:53;;;;;;;;;;;;;;;21.98;100.00;99037.69;5089617;28;19931;-83
2021/08/20 20:08:22;;;;;;;;;;;;;;;21.96;100.00;99034.56;5093700;28;19932;-83
2021/08/20 20:10:50;;;;;;;;;;;;;;;21.93;100.00;99042.03;5085289;28;20015;-83
2021/08/20 20:13:17;;;;;;;;;;;;;;;21.97;100.00;99039.75;5060727;28;20062;-84
2021/08/20 20:15:44;;;;;;;;;;;;;;;21.73;100.00;99039.22;5087311;28;19931;-84
2021/08/20 20:18:11;;;;;;;;;;;;;;;21.71;100.00;99044.59;5079979;28;19925;-85
2021/08/20 20:20:41;;;;;;;;;;;;;;;21.63;100.00;99054.84;5071435;28;20433;-83
2021/08/20 20:23:08;;;;;;;;;;;;;;;21.46;100.00;99048.19;5061180;28;19925;-83
2021/08/20 20:25:36;;;;;;;;;;;;;;;21.74;100.00;99046.47;5068882;28;19929;-83
2021/08/20 20:28:03;;;;;;;;;;;;;;;21.76;100.00;99046.78;5079942;28;20015;-83
2021/08/20 20:30:31;;;;;;;;;;;;;;;21.93;100.00;99059.09;5037678;28;20378;-83
2021/08/20 20:32:58;;;;;;;;;;;;;;;21.93;100.00;99049.81;5072285;28;19925;-83
2021/08/20 20:35:26;;;;;;;;;;;;;;;21.88;100.00;99051.31;5072171;28;19925;-83
2021/08/20 20:37:53;;;;;;;;;;;;;;;21.65;100.00;99040.91;5057576;28;20386;-83
2021/08/20 20:40:20;;;;;;;;;;;;;;;21.52;100.00;99053.94;5089114;28;19947;-83
2021/08/20 20:42:53;;;;;;;;;;;;;;;21.23;100.00;99057.69;5089089;28;19924;-83
2021/08/20 20:45:20;;;;;;;;;;;;;;;21.24;100.00;99050.72;5088809;28;19925;-83
2021/08/20 20:47:47;;;;;;;;;;;;;;;21.42;100.00;99059.75;5088700;28;19998;-83
2021/08/20 20:50:14;;;;;;;;;;;;;;;21.19;100.00;99062.78;5076383;28;19932;-83
2021/08/20 20:52:42;;;;;;;;;;;;;;;21.10;100.00;99065.75;5053645;28;19928;-83
2021/08/20 20:55:13;;;;;;;;;;;;;;;21.24;100.00;99071.41;5058490;28;19925;-83
2021/08/20 20:57:41;;;;;;;;;;;;;;;21.18;100.00;99069.75;5038759;28;19929;-83
2021/08/20 21:00:09;;;;;;;;;;;;;;;21.42;100.00;99072.44;5071294;28;19924;-83
2021/08/20 21:02:37;;;;;;;;;;;;;;;21.51;100.00;99066.59;5056323;28;19942;-83
2021/08/20 21:05:05;;;;;;;;;;;;;;;21.50;100.00;99074.34;5057543;28;19924;-83
2021/08/20 21:07:32;;;;;;;;;;;;;;;21.36;100.00;99066.66;5075911;28;20389;-83
2021/08/20 21:10:00;;;;;;;;;;;;;;;21.34;100.00;99066.38;5058310;28;19935;-83
2021/08/20 21:12:27;;;;;;;;;;;;;;;21.38;100.00;99064.09;5030287;28;20300;-83
2021/08/20 21:14:54;;;;;;;;;;;;;;;20.56;100.00;99074.94;5062682;28;19933;-83
2021/08/20 21:17:21;;;;;;;;;;;;;;;21.06;100.00;99076.56;5060740;28;19932;-83
2021/08/20 21:19:49;;;;;;;;;;;;;;;21.21;100.00;99068.75;5054687;28;19960;-83
2021/08/20 21:22:22;;;;;;;;;;;;;;;20.84;100.00;99071.28;5054469;28;20265;-83
2021/08/20 21:24:49;;;;;;;;;;;;;;;20.94;100.00;99077.63;5055130;28;19932;-83
2021/08/20 21:27:33;;;;;;;;;;;;;;;21.27;100.00;99061.09;5020619;28;19931;-82
2021/08/20 21:30:14;;;;;;;;;;;;;;;21.33;100.00;99064.78;5033688;28;19949;-83
2021/08/20 21:32:44;;;;;;;;;;;;;;;21.29;100.00;99059.34;5047797;28;19974;-76
2021/08/20 21:35:12;;;;;;;;;;;;;;;20.72;100.00;99071.63;5042705;28;20011;-77
2021/08/20 21:37:48;;;;;;;;;;;;;;;21.15;100.00;99068.69;5046573;28;20322;-77
2021/08/20 21:40:16;;;;;;;;;;;;;;;21.26;100.00;99068.06;5047303;28;20238;-76
2021/08/20 21:42:44;;;;;;;;;;;;;;;21.09;100.00;99067.03;5046059;28;19925;-78
2021/08/20 21:45:12;;;;;;;;;;;;;;;21.13;100.00;99059.88;5057412;28;20419;-78
2021/08/20 21:47:40;;;;;;;;;;;;;;;21.21;100.00;99065.91;5051880;28;20380;-78
2021/08/20 21:50:08;;;;;;;;;;;;;;;21.17;100.00;99065.38;5033357;28;20016;-78
2021/08/20 21:52:35;;;;;;;;;;;;;;;21.29;100.00;99067.06;5043363;28;19925;-78
2021/08/20 21:55:06;;;;;;;;;;;;;;;20.33;100.00;99070.16;5032606;28;19964;-79
2021/08/20 21:57:42;;;;;;;;;;;;;;;20.72;100.00;99065.94;5007322;28;19932;-79
2021/08/20 22:00:37;;;;;;;;;;;;;;;20.98;100.00;99058.34;5050094;28;19929;-80
2021/08/20 22:03:07;;;;;;;;;;;;;;;21.12;100.00;99058.31;5042899;28;20018;-78
2021/08/20 22:05:34;;;;;;;;;;;;;;;21.08;100.00;99052.06;5047522;28;20435;-78
2021/08/20 22:08:01;;;;;;;;;;;;;;;21.01;100.00;99058.16;5055088;28;20006;-78
2021/08/20 22:10:29;;;;;;;;;;;;;;;21.01;100.00;99057.38;5047208;28;19925;-78
2021/08/20 22:12:57;;;;;;;;;;;;;;;21.07;100.00;99058.22;5052836;28;19929;-77
2021/08/20 22:15:25;;;;;;;;;;;;;;;21.12;100.00;99060.38;5053640;28;19925;-76
2021/08/20 22:17:52;;;;;;;;;;;;;;;21.21;100.00;99055.34;5033279;28;19929;-76
2021/08/20 22:20:20;;;;;;;;;;;;;;;21.22;100.00;99056.13;5043625;28;19999;-76
2021/08/20 22:22:51;;;;;;;;;;;;;;;21.20;100.00;99059.44;5054443;28;19925;-76
2021/08/20 22:25:18;;;;;;;;;;;;;;;21.27;100.00;99058.25;5053318;28;19924;-76
2021/08/20 22:27:46;;;;;;;;;;;;;;;21.31;100.00;99058.84;5054355;28;20438;-76
2021/08/20 22:30:14;;;;;;;;;;;;;;;21.23;100.00;99052.00;5054298;28;19925;-77
2021/08/20 22:32:42;;;;;;;;;;;;;;;20.92;100.00;99054.63;5053211;28;20333;-77
2021/08/20 22:35:10;;;;;;;;;;;;;;;21.13;100.00;99059.09;5053849;28;19932;-76
2021/08/20 22:37:37;;;;;;;;;;;;;;;21.18;100.00;99055.56;5053097;28;20019;-76
2021/08/20 22:41:07;;;;;;;;;;;;;;;21.02;100.00;99056.88;5090944;28;20334;-78
2021/08/20 22:43:38;;;;;;;;;;;;;;;20.42;100.00;99056.66;5084972;28;19925;-78
2021/08/20 22:46:06;;;;;;;;;;;;;;;19.67;100.00;99058.34;5083535;28;20260;-78
2021/08/20 22:48:36;;;;;;;;;;;;;;;20.26;100.00;99050.69;5072656;28;19959;-78
2021/08/20 22:51:03;;;;;;;;;;;;;;;21.01;100.00;99051.69;5089638;28;19924;-78
2021/08/20 22:53:30;;;;;;;;;;;;;;;20.88;100.00;99042.69;5089417;28;19991;-78
2021/08/20 22:55:57;;;;;;;;;;;;;;;20.32;100.00;99051.59;5089588;28;20399;-78
2021/08/20 22:58:24;;;;;;;;;;;;;;;20.46;100.00;99050.81;5075261;28;20291;-78
2021/08/20 23:00:51;;;;;;;;;;;;;;;20.98;100.00;99052.66;5090716;28;19924;-78
2021/08/20 23:03:18;;;;;;;;;;;;;;;21.07;100.00;99047.66;5072342;28;20278;-78
2021/08/20 23:05:46;;;;;;;;;;;;;;;21.29;100.00;99050.81;5083667;28;19924;-78
2021/08/20 23:08:14;;;;;;;;;;;;;;;21.39;100.00;99045.75;5066765;28;19931;-78
2021/08/20 23:10:41;;;;;;;;;;;;;;;21.47;100.00;99046.13;5090354;28;19977;-78
2021/08/20 23:13:09;;;;;;;;;;;;;;;21.19;100.00;99051.41;5090368;28;20360;-78